Time;durP1;ratioP1;P1;durP2;ratioP2;P2;SDS_P1;SDS_P2;PMS_P1;PMS_P2;Temp;Humidity;BMP_temperature;BMP_pressure;BME280_temperature;BME280_humidity;BME280_pressure;Samples;Min_cycle;Max_cycle;Signal;HPM_P1;HPM_P2
2022/06/11 00:02:22;;;;;;;4.43;3.33;;;14.90;93.00;;;;;;4997612;28;20472;-68
2022/06/11 00:04:49;;;;;;;7.90;6.30;;;14.80;92.90;;;;;;5025660;28;20493;-68
2022/06/11 00:07:19;;;;;;;7.33;5.40;;;14.70;93.50;;;;;;5025172;28;20481;-69
2022/06/11 00:09:47;;;;;;;8.17;6.00;;;14.70;93.30;;;;;;5020522;28;20882;-68
2022/06/11 00:12:14;;;;;;;7.27;6.07;;;14.70;93.30;;;;;;5025674;28;20579;-68
2022/06/11 00:14:43;;;;;;;6.00;5.20;;;14.70;93.30;;;;;;5024943;28;20657;-68
2022/06/11 00:17:12;;;;;;;8.10;5.83;;;14.70;93.30;;;;;;5026732;28;21037;-68
2022/06/11 00:19:43;;;;;;;10.77;8.00;;;14.60;93.10;;;;;;5024392;28;21229;-68
2022/06/11 00:22:11;;;;;;;16.20;6.27;;;14.50;93.00;;;;;;5025909;28;20491;-68
2022/06/11 00:24:39;;;;;;;13.23;8.20;;;14.40;93.40;;;;;;5013768;28;20490;-68
2022/06/11 00:27:06;;;;;;;12.23;5.97;;;14.20;93.70;;;;;;5025384;28;20708;-68
2022/06/11 00:29:36;;;;;;;15.80;5.87;;;14.20;93.80;;;;;;5012938;28;20487;-68
2022/06/11 00:32:04;;;;;;;9.10;6.40;;;14.20;93.80;;;;;;5025139;28;20492;-68
2022/06/11 00:34:31;;;;;;;8.33;6.40;;;14.20;93.60;;;;;;5025531;28;20486;-67
2022/06/11 00:36:59;;;;;;;8.87;5.70;;;14.30;93.40;;;;;;5025749;28;20487;-67
2022/06/11 00:39:28;;;;;;;9.77;5.30;;;14.20;93.40;;;;;;5012075;28;20475;-68
2022/06/11 00:41:58;;;;;;;10.30;5.93;;;14.20;93.40;;;;;;5024900;28;20482;-68
2022/06/11 00:44:25;;;;;;;11.77;7.80;;;14.20;93.70;;;;;;5023655;28;20603;-68
2022/06/11 00:46:59;;;;;;;8.60;5.87;;;14.20;93.80;;;;;;5026788;28;20475;-68
2022/06/11 00:49:34;;;;;;;10.33;6.03;;;14.10;94.30;;;;;;5023972;28;20478;-68
2022/06/11 00:52:20;;;;;;;13.17;8.47;;;14.10;94.00;;;;;;5012419;28;20475;-67
2022/06/11 00:54:52;;;;;;;15.80;5.63;;;14.10;93.60;;;;;;5024316;28;20556;-68
2022/06/11 00:57:20;;;;;;;9.50;6.87;;;14.10;93.40;;;;;;5022824;28;20495;-68
2022/06/11 00:59:51;;;;;;;10.73;7.07;;;14.10;93.40;;;;;;5019989;28;20501;-68
2022/06/11 01:02:19;;;;;;;9.03;6.57;;;14.00;93.40;;;;;;4992680;28;20490;-68
2022/06/11 01:04:50;;;;;;;12.87;8.27;;;13.90;93.50;;;;;;5015274;28;20495;-68
2022/06/11 01:07:32;;;;;;;15.23;5.03;;;13.90;93.60;;;;;;5023288;28;20489;-68
2022/06/11 01:10:21;;;;;;;10.60;6.93;;;13.80;93.70;;;;;;5025649;28;20853;-68
2022/06/11 01:12:58;;;;;;;15.20;6.30;;;13.90;93.50;;;;;;5025261;28;20482;-68
2022/06/11 01:15:31;;;;;;;9.83;6.80;;;13.80;93.40;;;;;;5023766;28;20912;-68
2022/06/11 01:18:09;;;;;;;10.17;6.77;;;13.80;93.50;;;;;;5026924;28;20494;-68
2022/06/11 01:20:45;;;;;;;13.20;8.83;;;13.80;93.50;;;;;;5027964;28;20476;-68
2022/06/11 01:23:55;;;;;;;13.73;8.60;;;13.70;93.40;;;;;;5029725;28;20489;-68
2022/06/11 01:26:46;;;;;;;17.70;9.77;;;13.80;93.30;;;;;;5026723;28;20468;-68
2022/06/11 01:29:44;;;;;;;22.93;7.63;;;13.70;93.70;;;;;;5028297;28;21125;-68
2022/06/11 01:32:19;;;;;;;12.30;7.97;;;13.60;94.10;;;;;;4968748;28;21100;-68
2022/06/11 01:34:57;;;;;;;8.23;5.93;;;13.40;94.10;;;;;;5029325;28;20475;-68
2022/06/11 01:37:28;;;;;;;14.30;7.73;;;13.40;94.00;;;;;;5027532;28;20478;-68
2022/06/11 01:40:01;;;;;;;8.10;5.40;;;13.40;94.00;;;;;;5027980;28;20489;-68
2022/06/11 01:42:35;;;;;;;14.80;9.00;;;13.40;93.90;;;;;;5026743;28;20469;-68
2022/06/11 01:45:12;;;;;;;13.93;8.00;;;13.40;93.80;;;;;;5027111;28;20474;-68
2022/06/11 01:47:39;;;;;;;13.20;8.33;;;13.40;93.70;;;;;;5015003;28;20493;-68
2022/06/11 01:50:08;;;;;;;12.70;7.80;;;13.40;93.70;;;;;;5026525;28;20667;-67
2022/06/11 01:53:04;;;;;;;14.03;9.23;;;13.50;93.70;;;;;;5027461;28;20473;-68
2022/06/11 01:55:44;;;;;;;37.20;10.40;;;13.50;94.20;;;;;;5025824;28;20476;-68
2022/06/11 01:58:28;;;;;;;11.00;8.00;;;13.40;94.50;;;;;;5016693;28;20613;-67
2022/06/11 02:01:04;;;;;;;12.47;7.07;;;13.40;94.40;;;;;;5025653;28;20581;-68
2022/06/11 02:03:38;;;;;;;14.67;10.10;;;13.40;94.10;;;;;;5026170;28;21116;-68
2022/06/11 02:06:33;;;;;;;16.40;5.27;;;13.30;94.20;;;;;;4998803;28;20469;-68
2022/06/11 02:09:22;;;;;;;10.60;6.93;;;13.10;94.70;;;;;;5025737;28;20552;-68
2022/06/11 02:11:53;;;;;;;8.87;6.00;;;13.20;94.50;;;;;;5027885;28;20994;-67
2022/06/11 02:14:25;;;;;;;9.77;6.40;;;13.10;94.50;;;;;;5027241;28;20509;-68
2022/06/11 02:16:57;;;;;;;9.93;6.00;;;13.00;95.10;;;;;;5027883;28;20484;-68
2022/06/11 02:19:27;;;;;;;10.97;7.70;;;12.90;95.70;;;;;;5025914;28;20478;-67
2022/06/11 02:21:58;;;;;;;13.23;7.23;;;12.70;96.50;;;;;;5027135;28;20712;-67
2022/06/11 02:24:31;;;;;;;20.13;9.90;;;12.60;97.00;;;;;;5026790;28;21103;-68
2022/06/11 02:27:02;;;;;;;24.57;7.30;;;12.60;97.70;;;;;;5026123;28;20493;-68
2022/06/11 02:29:32;;;;;;;12.53;8.57;;;12.70;97.30;;;;;;5023787;28;20481;-68
2022/06/11 02:32:05;;;;;;;11.60;6.20;;;12.70;96.50;;;;;;5027733;28;20505;-68
2022/06/11 02:34:32;;;;;;;21.27;8.93;;;12.80;96.10;;;;;;5027794;28;20555;-68
2022/06/11 02:37:04;;;;;;;8.47;6.10;;;12.80;95.90;;;;;;5029228;28;20480;-68
2022/06/11 02:39:35;;;;;;;9.00;6.80;;;12.90;96.00;;;;;;4990672;28;1065089;-68
2022/06/11 02:42:05;;;;;;;10.43;7.40;;;12.90;95.80;;;;;;5028962;28;20237;-68
2022/06/11 02:44:32;;;;;;;7.80;6.00;;;13.00;95.80;;;;;;5027314;28;20485;-68
2022/06/11 02:47:00;;;;;;;8.10;5.57;;;13.10;95.70;;;;;;5007151;28;20479;-68
2022/06/11 02:49:30;;;;;;;11.90;8.00;;;13.10;95.30;;;;;;5022219;28;21234;-68
2022/06/11 02:52:00;;;;;;;12.70;6.60;;;13.20;95.20;;;;;;5029924;28;20485;-68
2022/06/11 02:54:27;;;;;;;16.00;6.23;;;13.10;94.80;;;;;;5029941;28;20502;-68
2022/06/11 02:56:57;;;;;;;9.17;6.60;;;13.10;94.70;;;;;;5027972;28;20487;-68
2022/06/11 02:59:26;;;;;;;8.80;6.40;;;13.00;94.80;;;;;;5027925;28;20846;-67
2022/06/11 03:01:54;;;;;;;7.30;5.10;;;12.80;95.80;;;;;;5019202;28;20480;-68
2022/06/11 03:04:23;;;;;;;11.23;7.43;;;12.70;96.40;;;;;;5030358;28;20527;-67
2022/06/11 03:06:50;;;;;;;11.57;7.50;;;12.70;96.30;;;;;;5028423;28;20860;-67
2022/06/11 03:09:21;;;;;;;11.70;6.30;;;12.70;96.10;;;;;;5026025;28;20484;-68
2022/06/11 03:11:48;;;;;;;9.13;6.40;;;12.80;96.20;;;;;;5028050;28;20518;-68
2022/06/11 03:14:15;;;;;;;36.77;6.93;;;12.90;96.10;;;;;;5027938;28;20754;-67
2022/06/11 03:16:43;;;;;;;9.90;7.40;;;12.90;96.10;;;;;;5021436;28;20484;-67
2022/06/11 03:19:10;;;;;;;9.17;6.13;;;12.90;96.00;;;;;;5026989;28;20834;-67
2022/06/11 03:21:40;;;;;;;8.30;6.23;;;12.90;95.90;;;;;;5023026;28;20478;-67
2022/06/11 03:24:07;;;;;;;7.07;5.70;;;12.90;96.00;;;;;;5026268;28;20473;-69
2022/06/11 03:26:35;;;;;;;9.90;6.87;;;12.90;96.40;;;;;;5020775;28;21500;-69
2022/06/11 03:29:02;;;;;;;15.53;5.97;;;13.00;96.40;;;;;;5034873;28;20740;-68
2022/06/11 03:31:28;;;;;;;6.00;5.17;;;13.00;96.30;;;;;;5034491;28;20993;-68
2022/06/11 03:33:55;;;;;;;6.63;5.20;;;13.00;96.50;;;;;;5038685;28;20501;-67
2022/06/11 03:36:22;;;;;;;13.93;4.80;;;13.00;96.80;;;;;;5038796;28;20485;-66
2022/06/11 03:38:50;;;;;;;5.10;4.60;;;13.00;96.70;;;;;;5037692;28;20474;-66
2022/06/11 03:41:18;;;;;;;6.90;4.83;;;13.00;96.70;;;;;;5037549;28;20489;-67
2022/06/11 03:43:45;;;;;;;14.43;4.37;;;13.10;96.60;;;;;;5039337;28;20827;-66
2022/06/11 03:46:12;;;;;;;5.10;4.20;;;13.00;96.60;;;;;;5040397;28;20481;-67
2022/06/11 03:48:39;;;;;;;10.80;4.93;;;13.00;96.70;;;;;;5034926;28;20487;-66
2022/06/11 03:51:07;;;;;;;16.67;4.17;;;13.10;96.40;;;;;;5039032;28;20484;-67
2022/06/11 03:53:36;;;;;;;7.50;6.50;;;13.10;96.30;;;;;;5035635;28;20487;-67
2022/06/11 03:56:05;;;;;;;4.57;3.97;;;13.20;96.30;;;;;;5039303;28;20830;-67
2022/06/11 03:58:32;;;;;;;15.73;6.57;;;13.10;96.40;;;;;;5035896;28;20487;-67
2022/06/11 04:01:19;;;;;;;7.40;4.20;;;13.00;96.80;;;;;;5035197;28;20493;-67
2022/06/11 04:03:49;;;;;;;11.90;3.77;;;12.80;97.20;;;;;;5024931;28;20483;-65
2022/06/11 04:06:17;;;;;;;7.13;5.00;;;12.90;97.30;;;;;;5020201;28;20483;-67
2022/06/11 04:08:44;;;;;;;4.87;4.40;;;;;;;;;;5036886;28;20478;-67
2022/06/11 04:11:14;;;;;;;4.90;4.37;;;13.00;97.20;;;;;;5037266;28;20475;-67
2022/06/11 04:13:43;;;;;;;8.10;5.43;;;13.00;97.30;;;;;;5032924;28;20985;-67
2022/06/11 04:16:21;;;;;;;13.90;5.10;;;13.10;97.50;;;;;;5035843;28;20487;-67
2022/06/11 04:18:48;;;;;;;5.40;4.90;;;13.10;97.40;;;;;;5009344;28;21078;-67
2022/06/11 04:21:16;;;;;;;5.83;5.33;;;13.20;97.20;;;;;;5037895;28;20977;-68
2022/06/11 04:23:47;;;;;;;12.73;4.57;;;13.40;97.10;;;;;;5014267;28;20905;-68
2022/06/11 04:26:19;;;;;;;5.37;4.87;;;13.50;97.40;;;;;;5033416;28;20479;-68
2022/06/11 04:28:46;;;;;;;14.67;5.30;;;13.70;97.10;;;;;;5036976;28;20922;-67
2022/06/11 04:31:15;;;;;;;7.43;4.67;;;13.70;96.90;;;;;;5035833;28;20486;-67
2022/06/11 04:33:44;;;;;;;7.20;4.90;;;13.80;96.80;;;;;;5021123;28;21271;-68
2022/06/11 04:36:11;;;;;;;8.73;5.23;;;13.90;96.60;;;;;;5041908;28;20480;-68
2022/06/11 04:38:39;;;;;;;7.60;6.80;;;14.00;96.60;;;;;;5035861;28;20482;-68
2022/06/11 04:41:06;;;;;;;8.10;5.53;;;14.00;96.50;;;;;;5035386;28;20588;-68
2022/06/11 04:43:35;;;;;;;18.40;5.23;;;14.10;96.30;;;;;;5022923;28;20482;-68
2022/06/11 04:46:02;;;;;;;4.80;4.30;;;14.20;96.30;;;;;;5023282;28;20488;-67
2022/06/11 04:48:29;;;;;;;6.90;6.20;;;14.20;96.40;;;;;;5031563;28;20473;-67
2022/06/11 04:50:56;;;;;;;11.60;4.43;;;14.20;96.80;;;;;;5031156;28;20489;-67
2022/06/11 04:53:23;;;;;;;9.10;5.57;;;14.20;97.00;;;;;;5036154;28;20473;-67
2022/06/11 04:55:51;;;;;;;5.17;4.67;;;14.20;97.20;;;;;;5037900;28;20694;-67
2022/06/11 04:58:18;;;;;;;11.30;4.10;;;14.20;97.20;;;;;;5037703;28;20477;-66
2022/06/11 05:00:46;;;;;;;5.37;4.87;;;14.20;97.40;;;;;;5036659;28;20478;-67
2022/06/11 05:03:13;;;;;;;6.17;5.57;;;14.10;97.60;;;;;;5034438;28;20566;-67
2022/06/11 05:05:41;;;;;;;13.73;5.60;;;13.90;98.10;;;;;;5027384;28;20497;-67
2022/06/11 05:08:08;;;;;;;6.13;5.23;;;13.90;98.60;;;;;;5040198;28;21018;-67
2022/06/11 05:10:36;;;;;;;7.27;5.50;;;13.80;98.50;;;;;;5034928;28;20474;-67
2022/06/11 05:13:05;;;;;;;14.50;5.10;;;13.80;98.60;;;;;;5037069;28;20842;-67
2022/06/11 05:15:33;;;;;;;8.63;6.00;;;13.90;98.90;;;;;;5033514;28;21013;-67
2022/06/11 05:18:02;;;;;;;8.27;4.80;;;13.90;99.10;;;;;;5038436;28;20487;-67
2022/06/11 05:20:29;;;;;;;9.47;5.00;;;13.90;99.70;;;;;;5030463;28;20483;-66
2022/06/11 05:22:56;;;;;;;7.00;6.00;;;13.90;99.60;;;;;;5037022;28;20500;-67
2022/06/11 05:25:23;;;;;;;6.30;5.07;;;13.90;99.70;;;;;;5037361;28;20470;-67
2022/06/11 05:27:50;;;;;;;5.37;4.83;;;13.90;99.90;;;;;;5037474;28;20473;-67
2022/06/11 05:30:19;;;;;;;8.90;6.73;;;13.90;99.90;;;;;;5036633;28;20483;-66
2022/06/11 05:32:46;;;;;;;12.53;7.67;;;13.90;99.90;;;;;;5036103;28;20482;-67
2022/06/11 05:35:18;;;;;;;8.70;6.77;;;13.90;99.90;;;;;;5027547;28;20510;-66
2022/06/11 05:37:46;;;;;;;9.40;6.63;;;14.00;99.90;;;;;;5036422;28;20483;-67
2022/06/11 05:40:14;;;;;;;10.27;7.63;;;14.20;99.90;;;;;;5038648;28;20817;-66
2022/06/11 05:42:47;;;;;;;8.70;5.90;;;14.40;99.90;;;;;;5035974;28;20491;-67
2022/06/11 05:45:15;;;;;;;8.50;7.23;;;14.60;99.90;;;;;;5037497;28;20486;-67
2022/06/11 05:47:43;;;;;;;18.13;6.40;;;14.80;99.90;;;;;;5036143;28;20556;-66
2022/06/11 05:50:15;;;;;;;9.80;6.17;;;14.90;99.90;;;;;;5036060;28;20483;-67
2022/06/11 05:52:45;;;;;;;7.70;6.90;;;15.10;99.90;;;;;;5036269;28;20539;-67
2022/06/11 05:55:13;;;;;;;6.87;6.13;;;15.20;99.90;;;;;;5033035;28;20487;-67
2022/06/11 05:57:40;;;;;;;7.80;7.03;;;15.40;99.90;;;;;;5034561;28;20490;-67
2022/06/11 06:00:11;;;;;;;8.43;7.13;;;15.60;99.90;;;;;;5032978;28;20487;-67
2022/06/11 06:02:40;;;;;;;12.20;8.07;;;15.70;99.90;;;;;;5034665;28;20485;-67
2022/06/11 06:05:08;;;;;;;6.97;6.37;;;15.80;99.90;;;;;;5041630;28;20613;-67
2022/06/11 06:07:35;;;;;;;16.87;7.40;;;16.20;99.90;;;;;;5039117;28;20481;-67
2022/06/11 06:10:03;;;;;;;9.93;8.27;;;16.40;99.60;;;;;;5036827;28;20535;-67
2022/06/11 06:12:32;;;;;;;9.93;8.70;;;16.50;99.90;;;;;;5039772;28;20505;-66
2022/06/11 06:15:02;;;;;;;16.73;7.40;;;16.90;99.60;;;;;;5040628;28;20912;-67
2022/06/11 06:17:29;;;;;;;7.70;6.83;;;17.00;98.50;;;;;;5005635;28;20504;-67
2022/06/11 06:19:56;;;;;;;9.43;6.53;;;17.20;98.60;;;;;;5006560;28;20478;-67
2022/06/11 06:22:23;;;;;;;13.13;7.00;;;17.50;98.50;;;;;;5037984;28;20794;-67
2022/06/11 06:24:49;;;;;;;7.63;6.43;;;17.70;98.40;;;;;;5038813;28;20475;-67
2022/06/11 06:27:17;;;;;;;8.20;6.10;;;17.80;97.80;;;;;;5032105;28;20515;-67
2022/06/11 06:29:44;;;;;;;13.90;6.63;;;18.00;98.00;;;;;;5033109;28;20475;-66
2022/06/11 06:32:11;;;;;;;6.37;5.77;;;18.10;97.60;;;;;;5038374;28;20498;-66
2022/06/11 06:34:38;;;;;;;12.13;7.33;;;18.20;97.70;;;;;;5039354;28;20479;-67
2022/06/11 06:37:05;;;;;;;13.47;5.63;;;18.40;97.70;;;;;;5039641;28;20993;-67
2022/06/11 06:39:32;;;;;;;8.40;6.20;;;18.60;97.70;;;;;;5038941;28;20479;-67
2022/06/11 06:42:00;;;;;;;14.93;7.53;;;18.70;97.90;;;;;;5010241;28;21209;-67
2022/06/11 06:44:28;;;;;;;10.23;5.80;;;18.90;98.20;;;;;;5039154;28;20897;-66
2022/06/11 06:46:55;;;;;;;7.43;6.20;;;19.10;98.00;;;;;;5024071;28;20503;-67
2022/06/11 06:49:22;;;;;;;7.83;6.40;;;19.40;97.80;;;;;;5037690;28;20480;-66
2022/06/11 06:51:49;;;;;;;16.13;6.00;;;19.80;97.20;;;;;;5037820;28;20486;-67
2022/06/11 06:54:16;;;;;;;7.23;4.73;;;20.00;97.00;;;;;;5038401;28;21804;-67
2022/06/11 06:56:44;;;;;;;10.93;4.83;;;20.10;96.10;;;;;;5027358;28;20480;-66
2022/06/11 06:59:11;;;;;;;11.03;4.83;;;20.40;95.10;;;;;;5032841;28;20507;-67
2022/06/11 07:01:40;;;;;;;10.50;6.57;;;20.70;94.50;;;;;;5033466;28;20496;-66
2022/06/11 07:04:06;;;;;;;6.87;5.50;;;20.90;95.40;;;;;;5037539;28;20476;-66
2022/06/11 07:06:35;;;;;;;7.90;6.07;;;21.10;94.80;;;;;;5038595;28;20471;-67
2022/06/11 07:09:02;;;;;;;5.93;4.63;;;21.40;94.70;;;;;;5037221;28;21034;-67
2022/06/11 07:11:29;;;;;;;6.03;5.40;;;21.70;95.00;;;;;;5040694;28;20486;-67
2022/06/11 07:13:56;;;;;;;7.57;5.13;;;21.80;94.50;;;;;;5037481;28;20471;-67
2022/06/11 07:16:28;;;;;;;9.33;5.33;;;22.10;94.00;;;;;;5034222;28;20489;-67
2022/06/11 07:18:59;;;;;;;12.43;4.90;;;22.30;93.70;;;;;;5038202;28;20972;-67
2022/06/11 07:21:29;;;;;;;6.20;3.47;;;22.50;93.40;;;;;;5033802;28;20990;-67
2022/06/11 07:23:59;;;;;;;4.70;4.23;;;22.70;93.20;;;;;;5039060;28;20490;-67
2022/06/11 07:26:30;;;;;;;11.00;4.53;;;23.00;92.80;;;;;;5037222;28;20492;-67
2022/06/11 07:29:00;;;;;;;10.30;5.80;;;23.10;93.00;;;;;;5042516;28;20499;-68
2022/06/11 07:31:29;;;;;;;9.17;5.70;;;23.30;92.90;;;;;;5032191;28;20489;-66
2022/06/11 07:33:58;;;;;;;9.60;5.27;;;23.50;92.60;;;;;;5033723;28;20544;-65
2022/06/11 07:36:26;;;;;;;5.70;3.80;;;23.60;93.10;;;;;;5038673;28;20486;-66
2022/06/11 07:38:52;;;;;;;7.37;5.73;;;23.70;92.60;;;;;;5037552;28;20792;-66
2022/06/11 07:41:19;;;;;;;5.73;4.10;;;23.80;92.10;;;;;;5039043;28;20499;-67
2022/06/11 07:43:46;;;;;;;9.23;4.93;;;24.00;92.70;;;;;;5023365;28;20995;-66
2022/06/11 07:46:13;;;;;;;10.13;4.90;;;24.00;90.20;;;;;;5037440;28;20483;-67
2022/06/11 07:48:40;;;;;;;9.20;4.83;;;24.10;90.70;;;;;;5030578;28;20483;-66
2022/06/11 07:51:08;;;;;;;10.70;5.17;;;24.10;88.00;;;;;;5036012;28;20490;-67
2022/06/11 07:53:35;;;;;;;11.00;4.50;;;24.30;86.10;;;;;;5040230;28;20852;-66
2022/06/11 07:56:02;;;;;;;6.17;4.23;;;24.50;87.20;;;;;;5038172;28;20704;-67
2022/06/11 07:58:32;;;;;;;13.30;3.47;;;24.60;83.60;;;;;;5012616;28;21037;-67
2022/06/11 08:00:59;;;;;;;16.80;4.67;;;24.60;84.70;;;;;;5035916;28;21019;-66
2022/06/11 08:03:27;;;;;;;7.13;4.40;;;24.70;85.30;;;;;;5037005;28;20836;-66
2022/06/11 08:05:55;;;;;;;4.33;3.83;;;24.70;83.50;;;;;;5036264;28;20522;-67
2022/06/11 08:08:24;;;;;;;10.83;2.63;;;24.90;78.60;;;;;;5038011;28;20464;-67
2022/06/11 08:10:50;;;;;;;4.27;3.77;;;25.10;79.80;;;;;;5035510;28;20462;-67
2022/06/11 08:13:17;;;;;;;4.80;3.63;;;25.40;87.20;;;;;;5037394;28;20488;-67
2022/06/11 08:15:48;;;;;;;10.37;3.20;;;25.30;80.90;;;;;;5038200;28;20475;-67
2022/06/11 08:18:16;;;;;;;6.27;3.60;;;25.40;80.10;;;;;;5036952;28;20483;-67
2022/06/11 08:20:43;;;;;;;16.83;4.93;;;25.50;80.10;;;;;;5035246;28;20471;-67
2022/06/11 08:23:10;;;;;;;9.67;5.03;;;25.60;78.00;;;;;;5035727;28;20480;-67
2022/06/11 08:25:39;;;;;;;9.83;6.70;;;25.80;83.30;;;;;;5036619;28;20851;-67
2022/06/11 08:28:06;;;;;;;7.93;4.90;;;;;;;;;;5035315;28;20487;-67
2022/06/11 08:30:34;;;;;;;7.90;4.33;;;26.10;84.20;;;;;;5037167;28;20476;-68
2022/06/11 08:33:01;;;;;;;6.40;4.00;;;26.40;77.80;;;;;;5038504;28;20476;-67
2022/06/11 08:35:31;;;;;;;6.77;4.30;;;26.60;77.90;;;;;;5038319;28;20483;-67
2022/06/11 08:37:57;;;;;;;4.60;3.47;;;26.60;76.00;;;;;;5038969;28;20487;-67
2022/06/11 08:40:30;;;;;;;3.70;3.17;;;26.50;76.80;;;;;;5023224;28;20543;-67
2022/06/11 08:43:01;;;;;;;24.40;4.83;;;26.60;73.60;;;;;;5037652;28;20454;-67
2022/06/11 08:45:36;;;;;;;5.87;3.80;;;26.70;76.90;;;;;;5026323;28;20447;-67
2022/06/11 08:48:11;;;;;;;9.93;5.63;;;26.60;75.50;;;;;;5037233;28;20487;-67
2022/06/11 08:50:45;;;;;;;6.10;4.93;;;26.80;78.00;;;;;;5035123;28;20457;-67
2022/06/11 08:53:12;;;;;;;6.33;4.33;;;26.60;73.00;;;;;;5039563;28;20446;-68
2022/06/11 08:55:39;;;;;;;11.93;4.03;;;26.80;76.40;;;;;;5036927;28;20454;-66
2022/06/11 08:58:18;;;;;;;5.67;4.20;;;26.90;74.80;;;;;;5038154;28;20505;-69
2022/06/11 09:00:51;;;;;;;27.07;6.10;;;27.10;77.30;;;;;;5035246;28;20559;-69
2022/06/11 09:03:40;;;;;;;3.83;2.90;;;27.40;78.20;;;;;;5037124;28;20472;-68
2022/06/11 09:06:32;;;;;;;11.90;3.30;;;27.50;73.30;;;;;;5045619;28;20461;-68
2022/06/11 09:09:03;;;;;;;9.40;4.03;;;;;;;;;;5025238;28;20563;-67
2022/06/11 09:11:49;;;;;;;4.13;3.00;;;27.40;79.10;;;;;;5037007;28;20490;-68
2022/06/11 09:14:33;;;;;;;5.63;4.40;;;27.30;72.20;;;;;;5035515;28;20702;-68
2022/06/11 09:17:29;;;;;;;9.20;4.30;;;27.10;70.60;;;;;;5034969;28;20442;-69
2022/06/11 09:20:07;;;;;;;4.53;2.93;;;26.80;71.60;;;;;;5033335;28;20583;-69
2022/06/11 09:22:54;;;;;;;3.50;2.33;;;26.60;73.70;;;;;;5037335;28;20472;-69
2022/06/11 09:25:32;;;;;;;4.40;2.47;;;26.50;73.60;;;;;;5024550;28;20538;-68
2022/06/11 09:28:03;;;;;;;9.30;3.67;;;26.60;74.80;;;;;;5034208;28;20857;-69
2022/06/11 09:30:40;;;;;;;4.50;2.57;;;26.60;77.20;;;;;;5035828;28;21026;-67
2022/06/11 09:33:13;;;;;;;5.20;4.03;;;26.50;71.70;;;;;;5036078;28;20465;-65
2022/06/11 09:35:46;;;;;;;7.93;4.27;;;26.40;72.60;;;;;;5035836;28;22383;-66
2022/06/11 09:38:19;;;;;;;6.57;4.63;;;26.40;75.80;;;;;;5035745;28;20477;-67
2022/06/11 09:40:50;;;;;;;8.63;2.70;;;26.40;76.10;;;;;;5037832;28;20479;-66
2022/06/11 09:43:25;;;;;;;4.23;3.80;;;26.40;74.60;;;;;;5038562;28;20974;-67
2022/06/11 09:46:01;;;;;;;12.60;4.27;;;26.40;73.50;;;;;;5028105;28;20462;-66
2022/06/11 09:48:39;;;;;;;4.80;3.57;;;26.30;72.50;;;;;;5041992;28;20520;-66
2022/06/11 09:51:12;;;;;;;6.57;3.47;;;26.20;75.40;;;;;;5041279;28;20917;-66
2022/06/11 09:53:55;;;;;;;12.90;6.40;;;26.20;73.20;;;;;;5036920;28;20487;-66
2022/06/11 09:56:30;;;;;;;7.00;3.33;;;26.60;74.10;;;;;;5026195;28;20960;-66
2022/06/11 09:59:12;;;;;;;9.93;4.03;;;27.00;77.60;;;;;;5039455;28;20462;-67
2022/06/11 10:01:44;;;;;;;4.53;4.10;;;27.10;73.10;;;;;;5039505;28;20483;-65
2022/06/11 10:04:14;;;;;;;4.57;3.63;;;27.40;72.70;;;;;;5038550;28;20570;-66
2022/06/11 10:06:48;;;;;;;3.90;3.50;;;27.40;73.50;;;;;;5040983;28;21479;-67
2022/06/11 10:09:19;;;;;;;3.87;3.43;;;27.60;77.60;;;;;;5039246;28;20449;-67
2022/06/11 10:11:51;;;;;;;6.03;3.87;;;27.40;73.40;;;;;;5040294;28;20477;-66
2022/06/11 10:14:31;;;;;;;28.73;4.53;;;27.40;72.60;;;;;;5038901;28;20447;-67
2022/06/11 10:17:08;;;;;;;8.33;3.27;;;27.40;71.50;;;;;;5028498;28;20487;-70
2022/06/11 10:19:41;;;;;;;15.73;2.90;;;27.40;72.60;;;;;;5034163;28;20453;-68
2022/06/11 10:22:24;;;;;;;5.03;3.77;;;27.10;71.60;;;;;;5043420;28;20454;-67
2022/06/11 10:25:18;;;;;;;6.33;3.30;;;27.40;73.70;;;;;;5012581;28;20468;-68
2022/06/11 10:27:48;;;;;;;5.10;3.80;;;;;;;;;;5036941;28;20476;-67
2022/06/11 10:30:26;;;;;;;3.97;3.50;;;27.40;75.70;;;;;;5039183;28;20487;-67
2022/06/11 10:32:56;;;;;;;8.57;4.30;;;27.60;75.10;;;;;;5038565;28;20469;-67
2022/06/11 10:35:29;;;;;;;9.83;3.87;;;27.80;71.00;;;;;;5037300;28;20507;-67
2022/06/11 10:38:02;;;;;;;7.43;4.07;;;27.70;70.30;;;;;;5039092;28;20465;-67
2022/06/11 10:40:34;;;;;;;2.60;2.10;;;27.80;71.30;;;;;;5036624;28;20453;-71
2022/06/11 10:43:08;;;;;;;5.33;2.97;;;27.70;69.10;;;;;;5041072;28;20450;-68
2022/06/11 10:45:35;;;;;;;4.00;3.10;;;27.40;70.70;;;;;;5038907;28;20458;-68
2022/06/11 10:48:07;;;;;;;12.73;3.03;;;27.60;73.90;;;;;;5039951;28;20494;-68
2022/06/11 10:50:35;;;;;;;3.90;2.17;;;27.80;72.20;;;;;;5036459;28;20478;-67
2022/06/11 10:53:10;;;;;;;4.17;3.33;;;27.70;72.60;;;;;;5037231;28;20476;-69
2022/06/11 10:55:42;;;;;;;3.43;2.57;;;27.70;72.20;;;;;;5038686;28;20495;-67
2022/06/11 10:58:19;;;;;;;3.10;2.80;;;27.60;70.40;;;;;;5027759;28;20996;-68
2022/06/11 11:00:51;;;;;;;5.70;2.73;;;27.70;69.60;;;;;;5036066;28;20490;-67
2022/06/11 11:03:29;;;;;;;5.60;4.33;;;27.70;73.60;;;;;;5038428;28;20451;-68
2022/06/11 11:06:01;;;;;;;3.10;2.23;;;27.70;74.00;;;;;;5026348;28;20514;-68
2022/06/11 11:08:28;;;;;;;5.17;2.50;;;27.80;73.90;;;;;;5037736;28;20446;-71
2022/06/11 11:10:57;;;;;;;7.03;3.23;;;27.70;70.50;;;;;;5038428;28;20474;-68
2022/06/11 11:13:32;;;;;;;6.00;2.20;;;27.80;69.50;;;;;;5037581;28;20450;-68
2022/06/11 11:16:09;;;;;;;11.50;3.10;;;28.00;73.70;;;;;;5037821;28;20909;-69
2022/06/11 11:18:45;;;;;;;5.03;2.70;;;28.40;71.90;;;;;;5021036;28;20492;-69
2022/06/11 11:21:18;;;;;;;5.70;2.80;;;28.70;70.00;;;;;;5031119;28;20479;-68
2022/06/11 11:23:49;;;;;;;10.83;1.97;;;29.20;73.40;;;;;;5034341;28;20991;-68
2022/06/11 11:26:33;;;;;;;6.10;2.37;;;29.50;69.60;;;;;;5034302;28;20468;-69
2022/06/11 11:29:08;;;;;;;13.87;2.43;;;29.50;67.60;;;;;;5024130;28;20505;-69
2022/06/11 11:31:42;;;;;;;2.60;1.73;;;29.10;67.20;;;;;;5035694;28;20519;-67
2022/06/11 11:34:17;;;;;;;9.60;3.10;;;28.80;72.30;;;;;;5033666;28;20480;-67
2022/06/11 11:36:44;;;;;;;3.20;2.30;;;28.80;70.20;;;;;;5037886;28;20488;-67
2022/06/11 11:39:27;;;;;;;3.50;3.20;;;28.60;67.40;;;;;;5027344;28;20462;-67
2022/06/11 11:42:12;;;;;;;4.43;2.10;;;28.80;70.50;;;;;;5035541;28;20454;-67
2022/06/11 11:44:42;;;;;;;9.93;2.43;;;28.90;67.70;;;;;;5037549;28;20480;-68
2022/06/11 11:47:16;;;;;;;3.00;2.70;;;28.80;68.20;;;;;;5036026;28;20461;-67
2022/06/11 11:49:51;;;;;;;3.57;1.97;;;28.90;71.00;;;;;;5034138;28;20957;-67
2022/06/11 11:52:22;;;;;;;5.00;3.50;;;29.00;67.70;;;;;;5039436;28;20481;-67
2022/06/11 11:54:57;;;;;;;3.60;2.93;;;29.10;69.50;;;;;;5033801;28;20458;-67
2022/06/11 11:57:28;;;;;;;3.73;1.77;;;28.80;66.20;;;;;;5038601;28;20442;-68
2022/06/11 12:00:00;;;;;;;6.27;1.90;;;28.90;65.70;;;;;;5034873;28;21037;-68
2022/06/11 12:02:31;;;;;;;5.07;1.90;;;28.80;68.00;;;;;;5033714;28;20485;-67
2022/06/11 12:05:10;;;;;;;6.50;2.43;;;28.80;72.30;;;;;;5035516;28;21006;-67
2022/06/11 12:07:41;;;;;;;9.10;2.40;;;28.70;69.30;;;;;;5036882;28;20446;-67
2022/06/11 12:10:19;;;;;;;3.20;1.97;;;28.80;68.00;;;;;;5037141;28;20454;-67
2022/06/11 12:12:50;;;;;;;5.10;1.93;;;28.90;70.00;;;;;;5035656;28;20559;-67
2022/06/11 12:15:21;;;;;;;3.50;2.67;;;28.90;68.10;;;;;;5037832;28;20458;-68
2022/06/11 12:17:52;;;;;;;9.97;2.70;;;28.80;67.80;;;;;;5035912;28;20810;-67
2022/06/11 12:20:31;;;;;;;25.13;3.20;;;29.10;68.20;;;;;;5035978;28;20458;-68
2022/06/11 12:23:04;;;;;;;3.87;2.30;;;29.40;70.40;;;;;;5009325;28;20442;-68
2022/06/11 12:25:39;;;;;;;10.00;2.60;;;29.60;67.40;;;;;;5035375;28;21218;-67
2022/06/11 12:28:06;;;;;;;3.47;2.20;;;29.70;69.20;;;;;;5036309;28;20462;-67
2022/06/11 12:30:33;;;;;;;2.60;2.40;;;29.80;66.70;;;;;;5032453;28;20450;-67
2022/06/11 12:33:00;;;;;;;4.67;2.13;;;29.80;65.70;;;;;;5033281;28;20484;-66
2022/06/11 12:35:37;;;;;;;10.60;2.53;;;29.80;64.40;;;;;;5036382;28;20892;-68
2022/06/11 12:38:10;;;;;;;6.57;2.10;;;30.00;68.90;;;;;;5020626;28;20458;-67
2022/06/11 12:40:46;;;;;;;3.63;2.20;;;30.10;65.30;;;;;;5033443;28;20491;-67
2022/06/11 12:43:34;;;;;;;4.37;2.63;;;30.10;65.10;;;;;;5036492;28;20458;-68
2022/06/11 12:46:13;;;;;;;2.83;1.83;;;29.90;65.20;;;;;;5012894;28;20484;-67
2022/06/11 12:48:49;;;;;;;11.40;2.97;;;29.90;66.30;;;;;;5035592;28;20442;-68
2022/06/11 12:51:24;;;;;;;2.30;2.00;;;29.90;65.60;;;;;;5036508;28;20547;-68
2022/06/11 12:53:58;;;;;;;22.97;2.83;;;30.10;65.40;;;;;;5035181;28;20557;-68
2022/06/11 12:56:45;;;;;;;2.40;1.90;;;30.20;65.30;;;;;;5035748;28;21247;-68
2022/06/11 12:59:34;;;;;;;10.63;2.00;;;30.20;68.30;;;;;;5035294;28;20475;-68
2022/06/11 13:02:17;;;;;;;5.47;2.07;;;30.30;66.60;;;;;;5024377;28;20447;-67
2022/06/11 13:05:17;;;;;;;3.47;1.90;;;29.90;63.60;;;;;;5034037;28;20495;-68
2022/06/11 13:07:54;;;;;;;2.67;2.23;;;29.60;64.60;;;;;;5029143;28;20465;-68
2022/06/11 13:10:33;;;;;;;2.40;2.20;;;29.60;67.30;;;;;;5019722;28;20504;-68